sensor_id;sensor_type;location;lat;lon;timestamp;temperature;humidity
80274;DHT22;69576;51.902;-8.462;2023-06-10T00:02:20;20.10;62.10
80274;DHT22;69576;51.902;-8.462;2023-06-10T00:04:46;20.10;62.10
80274;DHT22;69576;51.902;-8.462;2023-06-10T00:07:14;20.10;62.10
80274;DHT22;69576;51.902;-8.462;2023-06-10T00:09:40;20.10;62.10
80274;DHT22;69576;51.902;-8.462;2023-06-10T00:12:08;20.10;62.20
80274;DHT22;69576;51.902;-8.462;2023-06-10T00:14:39;20.10;62.20
80274;DHT22;69576;51.902;-8.462;2023-06-10T00:17:06;20.10;62.10
80274;DHT22;69576;51.902;-8.462;2023-06-10T00:19:37;20.10;62.10
80274;DHT22;69576;51.902;-8.462;2023-06-10T00:22:07;20.10;62.20
80274;DHT22;69576;51.902;-8.462;2023-06-10T00:24:34;20.10;62.20
80274;DHT22;69576;51.902;-8.462;2023-06-10T00:27:00;20.10;62.20
80274;DHT22;69576;51.902;-8.462;2023-06-10T00:29:26;20.00;62.30
80274;DHT22;69576;51.902;-8.462;2023-06-10T00:31:52;20.10;62.30
80274;DHT22;69576;51.902;-8.462;2023-06-10T00:34:23;20.00;62.30
80274;DHT22;69576;51.902;-8.462;2023-06-10T00:36:49;20.00;62.30
80274;DHT22;69576;51.902;-8.462;2023-06-10T00:39:17;20.00;62.40
80274;DHT22;69576;51.902;-8.462;2023-06-10T00:41:45;20.10;62.40
80274;DHT22;69576;51.902;-8.462;2023-06-10T00:44:11;20.00;62.40
80274;DHT22;69576;51.902;-8.462;2023-06-10T00:46:39;20.00;62.50
80274;DHT22;69576;51.902;-8.462;2023-06-10T00:49:10;20.00;62.50
80274;DHT22;69576;51.902;-8.462;2023-06-10T00:51:36;20.00;62.50
80274;DHT22;69576;51.902;-8.462;2023-06-10T00:54:02;20.00;62.50
80274;DHT22;69576;51.902;-8.462;2023-06-10T00:56:28;20.00;62.50
80274;DHT22;69576;51.902;-8.462;2023-06-10T00:58:56;20.00;62.50
80274;DHT22;69576;51.902;-8.462;2023-06-10T01:01:22;20.00;62.50
80274;DHT22;69576;51.902;-8.462;2023-06-10T01:03:49;20.00;62.50
80274;DHT22;69576;51.902;-8.462;2023-06-10T01:08:57;20.00;62.60
80274;DHT22;69576;51.902;-8.462;2023-06-10T01:11:36;20.00;62.60
80274;DHT22;69576;51.902;-8.462;2023-06-10T01:14:04;20.00;62.60
80274;DHT22;69576;51.902;-8.462;2023-06-10T01:16:33;20.00;62.60
80274;DHT22;69576;51.902;-8.462;2023-06-10T01:19:01;20.00;62.60
80274;DHT22;69576;51.902;-8.462;2023-06-10T01:21:29;20.00;62.60
80274;DHT22;69576;51.902;-8.462;2023-06-10T01:23:56;20.00;62.70
80274;DHT22;69576;51.902;-8.462;2023-06-10T01:26:30;20.00;62.70
80274;DHT22;69576;51.902;-8.462;2023-06-10T01:29:11;20.00;62.90
80274;DHT22;69576;51.902;-8.462;2023-06-10T01:31:51;20.10;63.00
80274;DHT22;69576;51.902;-8.462;2023-06-10T01:34:23;20.10;63.10
80274;DHT22;69576;51.902;-8.462;2023-06-10T01:36:54;20.00;63.20
80274;DHT22;69576;51.902;-8.462;2023-06-10T01:39:25;20.00;63.20
80274;DHT22;69576;51.902;-8.462;2023-06-10T01:41:52;20.00;63.20
80274;DHT22;69576;51.902;-8.462;2023-06-10T01:44:22;20.00;63.20
80274;DHT22;69576;51.902;-8.462;2023-06-10T01:46:50;20.00;63.30
80274;DHT22;69576;51.902;-8.462;2023-06-10T01:49:16;20.00;63.40
80274;DHT22;69576;51.902;-8.462;2023-06-10T01:51:42;20.00;63.40
80274;DHT22;69576;51.902;-8.462;2023-06-10T01:54:08;20.00;63.40
80274;DHT22;69576;51.902;-8.462;2023-06-10T01:56:34;20.00;63.50
80274;DHT22;69576;51.902;-8.462;2023-06-10T01:59:00;20.00;63.50
80274;DHT22;69576;51.902;-8.462;2023-06-10T02:01:29;20.00;63.60
80274;DHT22;69576;51.902;-8.462;2023-06-10T02:03:54;19.90;63.60
80274;DHT22;69576;51.902;-8.462;2023-06-10T02:06:23;20.00;63.70
80274;DHT22;69576;51.902;-8.462;2023-06-10T02:08:49;19.90;63.70
80274;DHT22;69576;51.902;-8.462;2023-06-10T02:11:15;19.90;63.70
80274;DHT22;69576;51.902;-8.462;2023-06-10T02:13:40;19.90;63.70
80274;DHT22;69576;51.902;-8.462;2023-06-10T02:16:06;19.90;63.80
80274;DHT22;69576;51.902;-8.462;2023-06-10T02:18:38;19.90;63.80
80274;DHT22;69576;51.902;-8.462;2023-06-10T02:21:08;19.90;63.90
80274;DHT22;69576;51.902;-8.462;2023-06-10T02:23:34;19.90;63.90
80274;DHT22;69576;51.902;-8.462;2023-06-10T02:26:02;19.90;63.90
80274;DHT22;69576;51.902;-8.462;2023-06-10T02:28:28;19.90;63.90
80274;DHT22;69576;51.902;-8.462;2023-06-10T02:30:56;19.90;63.90
80274;DHT22;69576;51.902;-8.462;2023-06-10T02:33:22;19.90;64.00
80274;DHT22;69576;51.902;-8.462;2023-06-10T02:35:48;19.90;64.00
80274;DHT22;69576;51.902;-8.462;2023-06-10T02:38:14;19.90;64.00
80274;DHT22;69576;51.902;-8.462;2023-06-10T02:40:40;19.90;64.00
80274;DHT22;69576;51.902;-8.462;2023-06-10T02:43:06;19.90;64.10
80274;DHT22;69576;51.902;-8.462;2023-06-10T02:45:31;19.90;64.10
80274;DHT22;69576;51.902;-8.462;2023-06-10T02:47:57;19.90;64.10
80274;DHT22;69576;51.902;-8.462;2023-06-10T02:50:23;19.90;64.10
80274;DHT22;69576;51.902;-8.462;2023-06-10T02:52:51;19.80;64.10
80274;DHT22;69576;51.902;-8.462;2023-06-10T02:55:17;19.80;64.20
80274;DHT22;69576;51.902;-8.462;2023-06-10T02:57:42;19.80;64.20
80274;DHT22;69576;51.902;-8.462;2023-06-10T03:00:08;19.80;64.30
80274;DHT22;69576;51.902;-8.462;2023-06-10T03:02:39;19.80;64.20
80274;DHT22;69576;51.902;-8.462;2023-06-10T03:05:08;19.80;64.30
80274;DHT22;69576;51.902;-8.462;2023-06-10T03:07:39;19.80;64.30
80274;DHT22;69576;51.902;-8.462;2023-06-10T03:10:07;19.80;64.40
80274;DHT22;69576;51.902;-8.462;2023-06-10T03:12:33;19.80;64.30
80274;DHT22;69576;51.902;-8.462;2023-06-10T03:15:01;19.80;64.40
80274;DHT22;69576;51.902;-8.462;2023-06-10T03:17:30;19.80;64.40
80274;DHT22;69576;51.902;-8.462;2023-06-10T03:19:56;19.80;64.40
80274;DHT22;69576;51.902;-8.462;2023-06-10T03:22:22;19.80;64.40
80274;DHT22;69576;51.902;-8.462;2023-06-10T03:24:47;19.70;64.40
80274;DHT22;69576;51.902;-8.462;2023-06-10T03:27:16;19.70;64.40
80274;DHT22;69576;51.902;-8.462;2023-06-10T03:29:46;19.70;64.50
80274;DHT22;69576;51.902;-8.462;2023-06-10T03:32:14;19.70;64.50
80274;DHT22;69576;51.902;-8.462;2023-06-10T03:34:40;19.70;64.50
80274;DHT22;69576;51.902;-8.462;2023-06-10T03:37:06;19.80;64.40
80274;DHT22;69576;51.902;-8.462;2023-06-10T03:39:34;19.80;64.60
80274;DHT22;69576;51.902;-8.462;2023-06-10T03:42:00;19.80;64.60
80274;DHT22;69576;51.902;-8.462;2023-06-10T03:44:26;19.70;64.60
80274;DHT22;69576;51.902;-8.462;2023-06-10T03:46:53;19.70;64.70
80274;DHT22;69576;51.902;-8.462;2023-06-10T03:49:19;19.80;64.70
80274;DHT22;69576;51.902;-8.462;2023-06-10T03:51:45;19.70;64.70
80274;DHT22;69576;51.902;-8.462;2023-06-10T03:54:11;19.70;64.70
80274;DHT22;69576;51.902;-8.462;2023-06-10T03:56:39;19.70;64.70
80274;DHT22;69576;51.902;-8.462;2023-06-10T03:59:05;19.70;64.70
80274;DHT22;69576;51.902;-8.462;2023-06-10T04:01:31;19.70;64.60
80274;DHT22;69576;51.902;-8.462;2023-06-10T04:04:02;19.70;64.70
80274;DHT22;69576;51.902;-8.462;2023-06-10T04:06:28;19.70;64.70
80274;DHT22;69576;51.902;-8.462;2023-06-10T04:08:55;19.70;64.70
80274;DHT22;69576;51.902;-8.462;2023-06-10T04:11:25;19.70;64.80
80274;DHT22;69576;51.902;-8.462;2023-06-10T04:13:54;19.70;64.80
80274;DHT22;69576;51.902;-8.462;2023-06-10T04:16:22;19.70;64.80
80274;DHT22;69576;51.902;-8.462;2023-06-10T04:18:48;19.70;64.90
80274;DHT22;69576;51.902;-8.462;2023-06-10T04:21:14;19.70;64.80
80274;DHT22;69576;51.902;-8.462;2023-06-10T04:23:40;19.70;64.90
80274;DHT22;69576;51.902;-8.462;2023-06-10T04:26:09;19.70;64.90
80274;DHT22;69576;51.902;-8.462;2023-06-10T04:28:37;19.70;65.00
80274;DHT22;69576;51.902;-8.462;2023-06-10T04:31:03;19.70;65.00
80274;DHT22;69576;51.902;-8.462;2023-06-10T04:33:30;19.80;65.10
80274;DHT22;69576;51.902;-8.462;2023-06-10T04:35:59;19.80;65.00
80274;DHT22;69576;51.902;-8.462;2023-06-10T04:38:27;19.80;65.10
80274;DHT22;69576;51.902;-8.462;2023-06-10T04:40:53;19.80;65.20
80274;DHT22;69576;51.902;-8.462;2023-06-10T04:43:19;19.80;65.10
80274;DHT22;69576;51.902;-8.462;2023-06-10T04:45:46;19.80;65.20
80274;DHT22;69576;51.902;-8.462;2023-06-10T04:48:14;19.70;65.20
80274;DHT22;69576;51.902;-8.462;2023-06-10T04:50:40;19.80;65.20
80274;DHT22;69576;51.902;-8.462;2023-06-10T04:53:08;19.80;65.30
80274;DHT22;69576;51.902;-8.462;2023-06-10T04:55:34;19.70;65.20
80274;DHT22;69576;51.902;-8.462;2023-06-10T04:58:02;19.80;65.30
80274;DHT22;69576;51.902;-8.462;2023-06-10T05:00:30;19.70;65.40
80274;DHT22;69576;51.902;-8.462;2023-06-10T05:02:56;19.70;65.40
80274;DHT22;69576;51.902;-8.462;2023-06-10T05:05:22;19.70;65.40
80274;DHT22;69576;51.902;-8.462;2023-06-10T05:07:48;19.80;65.40
80274;DHT22;69576;51.902;-8.462;2023-06-10T05:10:13;19.70;65.50
80274;DHT22;69576;51.902;-8.462;2023-06-10T05:12:40;19.70;65.50
80274;DHT22;69576;51.902;-8.462;2023-06-10T05:15:09;19.70;65.50
80274;DHT22;69576;51.902;-8.462;2023-06-10T05:17:34;19.70;65.50
80274;DHT22;69576;51.902;-8.462;2023-06-10T05:20:01;19.70;65.60
80274;DHT22;69576;51.902;-8.462;2023-06-10T05:22:32;19.70;65.50
80274;DHT22;69576;51.902;-8.462;2023-06-10T05:24:58;19.70;65.60
80274;DHT22;69576;51.902;-8.462;2023-06-10T05:27:23;19.70;65.70
80274;DHT22;69576;51.902;-8.462;2023-06-10T05:29:50;19.70;65.70
80274;DHT22;69576;51.902;-8.462;2023-06-10T05:32:17;19.70;65.70
80274;DHT22;69576;51.902;-8.462;2023-06-10T05:34:43;19.70;65.70
80274;DHT22;69576;51.902;-8.462;2023-06-10T05:37:12;19.70;65.70
80274;DHT22;69576;51.902;-8.462;2023-06-10T05:39:39;19.70;65.70
80274;DHT22;69576;51.902;-8.462;2023-06-10T05:42:10;19.70;65.80
80274;DHT22;69576;51.902;-8.462;2023-06-10T05:44:38;19.70;65.80
80274;DHT22;69576;51.902;-8.462;2023-06-10T05:47:04;19.70;65.70
80274;DHT22;69576;51.902;-8.462;2023-06-10T05:49:30;19.70;65.80
80274;DHT22;69576;51.902;-8.462;2023-06-10T05:51:56;19.70;65.80
80274;DHT22;69576;51.902;-8.462;2023-06-10T05:54:25;19.70;65.80
80274;DHT22;69576;51.902;-8.462;2023-06-10T05:56:54;19.70;65.90
80274;DHT22;69576;51.902;-8.462;2023-06-10T05:59:20;19.70;65.90
80274;DHT22;69576;51.902;-8.462;2023-06-10T06:01:48;19.70;65.90
80274;DHT22;69576;51.902;-8.462;2023-06-10T06:04:15;19.70;65.90
80274;DHT22;69576;51.902;-8.462;2023-06-10T06:06:43;19.70;65.90
80274;DHT22;69576;51.902;-8.462;2023-06-10T06:09:09;19.70;65.90
80274;DHT22;69576;51.902;-8.462;2023-06-10T06:11:38;19.70;65.90
80274;DHT22;69576;51.902;-8.462;2023-06-10T06:14:11;19.70;66.00
80274;DHT22;69576;51.902;-8.462;2023-06-10T06:16:37;19.70;66.00
80274;DHT22;69576;51.902;-8.462;2023-06-10T06:19:02;19.70;66.00
80274;DHT22;69576;51.902;-8.462;2023-06-10T06:21:28;19.70;66.10
80274;DHT22;69576;51.902;-8.462;2023-06-10T06:23:54;19.70;66.10
80274;DHT22;69576;51.902;-8.462;2023-06-10T06:26:20;19.80;66.10
80274;DHT22;69576;51.902;-8.462;2023-06-10T06:28:46;19.70;66.10
80274;DHT22;69576;51.902;-8.462;2023-06-10T06:31:12;19.80;66.10
80274;DHT22;69576;51.902;-8.462;2023-06-10T06:33:38;19.80;66.20
80274;DHT22;69576;51.902;-8.462;2023-06-10T06:36:06;19.80;66.20
80274;DHT22;69576;51.902;-8.462;2023-06-10T06:38:34;19.80;66.20
80274;DHT22;69576;51.902;-8.462;2023-06-10T06:41:00;19.90;66.20
80274;DHT22;69576;51.902;-8.462;2023-06-10T06:43:29;19.90;66.20
80274;DHT22;69576;51.902;-8.462;2023-06-10T06:45:58;19.90;66.20
80274;DHT22;69576;51.902;-8.462;2023-06-10T06:48:24;19.90;66.20
80274;DHT22;69576;51.902;-8.462;2023-06-10T06:50:50;20.00;66.20
80274;DHT22;69576;51.902;-8.462;2023-06-10T06:53:15;20.00;66.20
80274;DHT22;69576;51.902;-8.462;2023-06-10T06:55:41;20.00;66.10
80274;DHT22;69576;51.902;-8.462;2023-06-10T06:58:07;20.00;66.10
80274;DHT22;69576;51.902;-8.462;2023-06-10T07:00:33;20.00;66.10
80274;DHT22;69576;51.902;-8.462;2023-06-10T07:02:58;20.00;66.00
80274;DHT22;69576;51.902;-8.462;2023-06-10T07:05:27;20.00;66.00
80274;DHT22;69576;51.902;-8.462;2023-06-10T07:07:53;20.10;65.90
80274;DHT22;69576;51.902;-8.462;2023-06-10T07:10:24;20.10;65.90
80274;DHT22;69576;51.902;-8.462;2023-06-10T07:12:51;20.10;65.80
80274;DHT22;69576;51.902;-8.462;2023-06-10T07:15:20;20.10;65.80
80274;DHT22;69576;51.902;-8.462;2023-06-10T07:17:46;20.10;65.80
80274;DHT22;69576;51.902;-8.462;2023-06-10T07:20:12;20.10;65.80
80274;DHT22;69576;51.902;-8.462;2023-06-10T07:22:41;20.10;65.90
80274;DHT22;69576;51.902;-8.462;2023-06-10T07:25:06;20.10;65.90
80274;DHT22;69576;51.902;-8.462;2023-06-10T07:27:32;20.10;65.80
80274;DHT22;69576;51.902;-8.462;2023-06-10T07:29:58;20.10;65.80
80274;DHT22;69576;51.902;-8.462;2023-06-10T07:32:26;20.10;65.80
80274;DHT22;69576;51.902;-8.462;2023-06-10T07:34:52;20.10;65.80
80274;DHT22;69576;51.902;-8.462;2023-06-10T07:37:18;20.10;65.70
80274;DHT22;69576;51.902;-8.462;2023-06-10T07:39:46;20.10;65.80
80274;DHT22;69576;51.902;-8.462;2023-06-10T07:42:12;20.10;65.80
80274;DHT22;69576;51.902;-8.462;2023-06-10T07:44:40;20.10;65.80
80274;DHT22;69576;51.902;-8.462;2023-06-10T07:47:08;20.10;65.90
80274;DHT22;69576;51.902;-8.462;2023-06-10T07:49:38;20.10;65.80
80274;DHT22;69576;51.902;-8.462;2023-06-10T07:52:05;20.10;65.90
80274;DHT22;69576;51.902;-8.462;2023-06-10T07:54:31;20.10;65.90
80274;DHT22;69576;51.902;-8.462;2023-06-10T07:56:59;20.10;66.00
80274;DHT22;69576;51.902;-8.462;2023-06-10T07:59:25;20.10;65.90
80274;DHT22;69576;51.902;-8.462;2023-06-10T08:01:54;20.00;65.90
80274;DHT22;69576;51.902;-8.462;2023-06-10T08:04:22;20.00;66.00
80274;DHT22;69576;51.902;-8.462;2023-06-10T08:06:48;20.00;65.90
80274;DHT22;69576;51.902;-8.462;2023-06-10T08:09:14;20.00;66.10
80274;DHT22;69576;51.902;-8.462;2023-06-10T08:11:42;20.00;66.30
80274;DHT22;69576;51.902;-8.462;2023-06-10T08:14:13;20.00;66.20
80274;DHT22;69576;51.902;-8.462;2023-06-10T08:16:39;20.00;66.20
80274;DHT22;69576;51.902;-8.462;2023-06-10T08:19:09;20.00;66.40
80274;DHT22;69576;51.902;-8.462;2023-06-10T08:21:35;20.00;66.50
80274;DHT22;69576;51.902;-8.462;2023-06-10T08:24:09;20.00;66.20
80274;DHT22;69576;51.902;-8.462;2023-06-10T08:26:35;20.00;66.30
80274;DHT22;69576;51.902;-8.462;2023-06-10T08:29:01;20.00;66.40
80274;DHT22;69576;51.902;-8.462;2023-06-10T08:31:26;20.00;66.40
80274;DHT22;69576;51.902;-8.462;2023-06-10T08:33:55;20.00;66.40
80274;DHT22;69576;51.902;-8.462;2023-06-10T08:36:20;20.00;66.20
80274;DHT22;69576;51.902;-8.462;2023-06-10T08:38:46;20.00;66.20
80274;DHT22;69576;51.902;-8.462;2023-06-10T08:41:14;19.90;66.30
80274;DHT22;69576;51.902;-8.462;2023-06-10T08:43:48;19.90;66.70
80274;DHT22;69576;51.902;-8.462;2023-06-10T08:46:17;19.90;66.70
80274;DHT22;69576;51.902;-8.462;2023-06-10T08:48:43;19.90;66.60
80274;DHT22;69576;51.902;-8.462;2023-06-10T08:51:13;19.90;66.50
80274;DHT22;69576;51.902;-8.462;2023-06-10T08:53:56;19.80;66.60
80274;DHT22;69576;51.902;-8.462;2023-06-10T08:56:28;19.80;66.80
80274;DHT22;69576;51.902;-8.462;2023-06-10T08:58:56;19.80;66.50
80274;DHT22;69576;51.902;-8.462;2023-06-10T09:01:24;19.70;66.80
80274;DHT22;69576;51.902;-8.462;2023-06-10T09:03:51;19.70;66.50
80274;DHT22;69576;51.902;-8.462;2023-06-10T09:06:18;19.80;66.50
80274;DHT22;69576;51.902;-8.462;2023-06-10T09:08:44;19.70;66.60
80274;DHT22;69576;51.902;-8.462;2023-06-10T09:11:10;19.70;66.70
80274;DHT22;69576;51.902;-8.462;2023-06-10T09:13:36;19.70;66.80
80274;DHT22;69576;51.902;-8.462;2023-06-10T09:16:04;19.70;67.10
80274;DHT22;69576;51.902;-8.462;2023-06-10T09:18:33;19.70;67.00
80274;DHT22;69576;51.902;-8.462;2023-06-10T09:21:01;19.70;66.90
80274;DHT22;69576;51.902;-8.462;2023-06-10T09:23:27;19.70;66.90
80274;DHT22;69576;51.902;-8.462;2023-06-10T09:26:01;19.70;67.00
80274;DHT22;69576;51.902;-8.462;2023-06-10T09:28:29;19.70;67.20
80274;DHT22;69576;51.902;-8.462;2023-06-10T09:31:05;19.70;67.30
80274;DHT22;69576;51.902;-8.462;2023-06-10T09:33:31;19.70;67.40
80274;DHT22;69576;51.902;-8.462;2023-06-10T09:35:58;19.70;67.20
80274;DHT22;69576;51.902;-8.462;2023-06-10T09:38:34;19.70;67.20
80274;DHT22;69576;51.902;-8.462;2023-06-10T09:41:03;19.70;67.20
80274;DHT22;69576;51.902;-8.462;2023-06-10T09:43:40;19.70;67.20
80274;DHT22;69576;51.902;-8.462;2023-06-10T09:46:07;19.70;67.50
80274;DHT22;69576;51.902;-8.462;2023-06-10T09:48:41;19.70;67.20
80274;DHT22;69576;51.902;-8.462;2023-06-10T09:51:11;19.70;67.30
80274;DHT22;69576;51.902;-8.462;2023-06-10T09:53:37;19.70;67.20
80274;DHT22;69576;51.902;-8.462;2023-06-10T09:56:06;19.70;67.20
80274;DHT22;69576;51.902;-8.462;2023-06-10T09:58:35;19.70;67.20
80274;DHT22;69576;51.902;-8.462;2023-06-10T10:01:10;19.70;67.30
80274;DHT22;69576;51.902;-8.462;2023-06-10T10:03:49;19.70;67.20
80274;DHT22;69576;51.902;-8.462;2023-06-10T10:06:16;19.70;67.30
80274;DHT22;69576;51.902;-8.462;2023-06-10T10:08:43;19.70;67.30
80274;DHT22;69576;51.902;-8.462;2023-06-10T10:11:10;19.70;67.40
80274;DHT22;69576;51.902;-8.462;2023-06-10T10:13:36;19.70;67.30
80274;DHT22;69576;51.902;-8.462;2023-06-10T10:16:14;19.60;67.30
80274;DHT22;69576;51.902;-8.462;2023-06-10T10:18:45;19.60;67.40
80274;DHT22;69576;51.902;-8.462;2023-06-10T10:21:13;19.60;67.50
80274;DHT22;69576;51.902;-8.462;2023-06-10T10:23:53;19.60;67.50
80274;DHT22;69576;51.902;-8.462;2023-06-10T10:26:21;19.60;67.70
80274;DHT22;69576;51.902;-8.462;2023-06-10T10:29:10;19.60;67.50
80274;DHT22;69576;51.902;-8.462;2023-06-10T10:31:39;19.60;67.50
80274;DHT22;69576;51.902;-8.462;2023-06-10T10:34:16;19.60;67.50
80274;DHT22;69576;51.902;-8.462;2023-06-10T10:36:45;19.60;67.50
80274;DHT22;69576;51.902;-8.462;2023-06-10T10:39:12;19.70;67.50
80274;DHT22;69576;51.902;-8.462;2023-06-10T10:41:38;19.70;67.50
80274;DHT22;69576;51.902;-8.462;2023-06-10T10:44:06;19.70;67.50
80274;DHT22;69576;51.902;-8.462;2023-06-10T10:46:43;19.60;67.50
80274;DHT22;69576;51.902;-8.462;2023-06-10T10:49:14;19.70;67.60
80274;DHT22;69576;51.902;-8.462;2023-06-10T10:51:56;19.70;67.60
80274;DHT22;69576;51.902;-8.462;2023-06-10T10:54:35;19.60;67.60
80274;DHT22;69576;51.902;-8.462;2023-06-10T10:57:17;19.60;67.60
80274;DHT22;69576;51.902;-8.462;2023-06-10T11:04:57;19.60;67.70
80274;DHT22;69576;51.902;-8.462;2023-06-10T11:07:26;19.60;67.70
80274;DHT22;69576;51.902;-8.462;2023-06-10T11:10:08;19.60;67.70
80274;DHT22;69576;51.902;-8.462;2023-06-10T11:15:12;19.60;67.70
80274;DHT22;69576;51.902;-8.462;2023-06-10T11:18:13;19.60;67.80
80274;DHT22;69576;51.902;-8.462;2023-06-10T11:28:38;19.60;67.90
80274;DHT22;69576;51.902;-8.462;2023-06-10T11:31:08;19.60;67.90
80274;DHT22;69576;51.902;-8.462;2023-06-10T11:33:38;19.60;67.90
80274;DHT22;69576;51.902;-8.462;2023-06-10T11:36:07;19.60;68.10
80274;DHT22;69576;51.902;-8.462;2023-06-10T11:38:35;19.60;68.00
80274;DHT22;69576;51.902;-8.462;2023-06-10T11:41:02;19.60;68.10
80274;DHT22;69576;51.902;-8.462;2023-06-10T11:43:31;19.60;68.10
80274;DHT22;69576;51.902;-8.462;2023-06-10T11:46:01;19.60;68.10
80274;DHT22;69576;51.902;-8.462;2023-06-10T11:48:27;19.60;68.20
80274;DHT22;69576;51.902;-8.462;2023-06-10T11:50:56;19.70;68.20
80274;DHT22;69576;51.902;-8.462;2023-06-10T11:53:25;19.70;68.20
80274;DHT22;69576;51.902;-8.462;2023-06-10T11:55:51;19.70;68.20
80274;DHT22;69576;51.902;-8.462;2023-06-10T11:58:21;19.70;68.30
80274;DHT22;69576;51.902;-8.462;2023-06-10T12:00:54;19.70;68.30
80274;DHT22;69576;51.902;-8.462;2023-06-10T12:03:24;19.70;68.20
80274;DHT22;69576;51.902;-8.462;2023-06-10T12:06:03;19.70;68.10
80274;DHT22;69576;51.902;-8.462;2023-06-10T12:08:30;19.70;68.40
80274;DHT22;69576;51.902;-8.462;2023-06-10T12:10:56;19.70;68.30
80274;DHT22;69576;51.902;-8.462;2023-06-10T12:13:26;19.70;68.60
80274;DHT22;69576;51.902;-8.462;2023-06-10T12:15:52;19.70;68.70
80274;DHT22;69576;51.902;-8.462;2023-06-10T12:18:24;19.70;68.40
80274;DHT22;69576;51.902;-8.462;2023-06-10T12:20:51;19.70;68.40
80274;DHT22;69576;51.902;-8.462;2023-06-10T12:23:17;19.80;68.50
80274;DHT22;69576;51.902;-8.462;2023-06-10T12:25:51;19.70;68.40
80274;DHT22;69576;51.902;-8.462;2023-06-10T12:28:26;19.70;68.40
80274;DHT22;69576;51.902;-8.462;2023-06-10T12:31:06;19.70;68.30
80274;DHT22;69576;51.902;-8.462;2023-06-10T12:33:33;19.80;68.40
80274;DHT22;69576;51.902;-8.462;2023-06-10T12:35:59;19.70;68.50
80274;DHT22;69576;51.902;-8.462;2023-06-10T12:38:26;19.70;68.40
80274;DHT22;69576;51.902;-8.462;2023-06-10T12:41:01;19.70;68.40
80274;DHT22;69576;51.902;-8.462;2023-06-10T12:43:31;19.80;68.50
80274;DHT22;69576;51.902;-8.462;2023-06-10T12:46:09;19.70;68.50
80274;DHT22;69576;51.902;-8.462;2023-06-10T12:48:43;19.80;68.40
80274;DHT22;69576;51.902;-8.462;2023-06-10T12:51:14;19.80;68.40
80274;DHT22;69576;51.902;-8.462;2023-06-10T12:53:40;19.80;68.50
80274;DHT22;69576;51.902;-8.462;2023-06-10T12:56:09;19.80;68.50
80274;DHT22;69576;51.902;-8.462;2023-06-10T12:58:35;19.90;68.60
80274;DHT22;69576;51.902;-8.462;2023-06-10T13:01:00;19.80;68.50
80274;DHT22;69576;51.902;-8.462;2023-06-10T13:03:26;19.80;68.70
80274;DHT22;69576;51.902;-8.462;2023-06-10T13:05:54;19.80;68.70
80274;DHT22;69576;51.902;-8.462;2023-06-10T13:08:20;19.80;68.70
80274;DHT22;69576;51.902;-8.462;2023-06-10T13:10:49;19.80;68.70
80274;DHT22;69576;51.902;-8.462;2023-06-10T13:13:18;19.80;68.60
80274;DHT22;69576;51.902;-8.462;2023-06-10T13:15:46;19.80;68.50
80274;DHT22;69576;51.902;-8.462;2023-06-10T13:18:11;19.80;68.70
80274;DHT22;69576;51.902;-8.462;2023-06-10T13:20:38;19.80;68.60
80274;DHT22;69576;51.902;-8.462;2023-06-10T13:23:09;19.90;68.70
80274;DHT22;69576;51.902;-8.462;2023-06-10T13:25:35;19.90;68.70
80274;DHT22;69576;51.902;-8.462;2023-06-10T13:28:03;19.90;68.60
80274;DHT22;69576;51.902;-8.462;2023-06-10T13:30:29;19.90;68.60
80274;DHT22;69576;51.902;-8.462;2023-06-10T13:32:57;19.90;68.60
80274;DHT22;69576;51.902;-8.462;2023-06-10T13:35:23;20.00;68.90
80274;DHT22;69576;51.902;-8.462;2023-06-10T13:37:49;20.00;68.80
80274;DHT22;69576;51.902;-8.462;2023-06-10T13:40:15;20.00;68.70
80274;DHT22;69576;51.902;-8.462;2023-06-10T13:42:41;20.00;68.60
80274;DHT22;69576;51.902;-8.462;2023-06-10T13:45:08;20.00;68.60
80274;DHT22;69576;51.902;-8.462;2023-06-10T13:47:36;20.00;68.80
80274;DHT22;69576;51.902;-8.462;2023-06-10T13:50:06;20.00;69.10
80274;DHT22;69576;51.902;-8.462;2023-06-10T13:52:32;20.00;69.00
80274;DHT22;69576;51.902;-8.462;2023-06-10T13:54:58;20.00;68.60
80274;DHT22;69576;51.902;-8.462;2023-06-10T13:57:24;20.00;68.50
80274;DHT22;69576;51.902;-8.462;2023-06-10T13:59:58;20.00;68.70
80274;DHT22;69576;51.902;-8.462;2023-06-10T14:02:28;20.10;68.60
80274;DHT22;69576;51.902;-8.462;2023-06-10T14:04:54;20.10;68.70
80274;DHT22;69576;51.902;-8.462;2023-06-10T14:07:19;20.10;68.60
80274;DHT22;69576;51.902;-8.462;2023-06-10T14:09:48;20.10;68.50
80274;DHT22;69576;51.902;-8.462;2023-06-10T14:12:13;20.10;68.30
80274;DHT22;69576;51.902;-8.462;2023-06-10T14:14:39;20.00;68.30
80274;DHT22;69576;51.902;-8.462;2023-06-10T14:17:05;20.10;68.40
80274;DHT22;69576;51.902;-8.462;2023-06-10T14:19:31;20.00;68.40
80274;DHT22;69576;51.902;-8.462;2023-06-10T14:21:57;20.00;68.40
80274;DHT22;69576;51.902;-8.462;2023-06-10T14:24:22;20.10;68.30
80274;DHT22;69576;51.902;-8.462;2023-06-10T14:26:48;20.10;68.30
80274;DHT22;69576;51.902;-8.462;2023-06-10T14:29:14;20.10;68.20
80274;DHT22;69576;51.902;-8.462;2023-06-10T14:31:40;20.00;68.30
80274;DHT22;69576;51.902;-8.462;2023-06-10T14:34:08;20.00;68.20
80274;DHT22;69576;51.902;-8.462;2023-06-10T14:36:34;20.00;68.20
80274;DHT22;69576;51.902;-8.462;2023-06-10T14:39:01;20.00;68.20
80274;DHT22;69576;51.902;-8.462;2023-06-10T14:41:26;20.00;68.20
80274;DHT22;69576;51.902;-8.462;2023-06-10T14:43:52;20.00;68.20
80274;DHT22;69576;51.902;-8.462;2023-06-10T14:46:18;20.00;68.20
80274;DHT22;69576;51.902;-8.462;2023-06-10T14:48:48;20.00;68.30
80274;DHT22;69576;51.902;-8.462;2023-06-10T14:51:15;20.00;68.20
80274;DHT22;69576;51.902;-8.462;2023-06-10T14:53:41;20.00;68.20
80274;DHT22;69576;51.902;-8.462;2023-06-10T14:56:07;20.10;68.20
80274;DHT22;69576;51.902;-8.462;2023-06-10T14:58:33;20.10;68.30
80274;DHT22;69576;51.902;-8.462;2023-06-10T15:00:59;20.10;68.70
80274;DHT22;69576;51.902;-8.462;2023-06-10T15:03:27;20.10;68.70
80274;DHT22;69576;51.902;-8.462;2023-06-10T15:05:55;20.10;68.30
80274;DHT22;69576;51.902;-8.462;2023-06-10T15:08:21;20.10;68.20
80274;DHT22;69576;51.902;-8.462;2023-06-10T15:10:46;20.10;68.20
80274;DHT22;69576;51.902;-8.462;2023-06-10T15:13:14;20.10;68.20
80274;DHT22;69576;51.902;-8.462;2023-06-10T15:15:39;20.10;68.20
80274;DHT22;69576;51.902;-8.462;2023-06-10T15:18:06;20.10;68.20
80274;DHT22;69576;51.902;-8.462;2023-06-10T15:20:34;20.10;68.20
80274;DHT22;69576;51.902;-8.462;2023-06-10T15:23:00;20.10;68.20
80274;DHT22;69576;51.902;-8.462;2023-06-10T15:25:26;20.10;68.20
80274;DHT22;69576;51.902;-8.462;2023-06-10T15:27:51;20.10;68.20
80274;DHT22;69576;51.902;-8.462;2023-06-10T15:30:17;20.10;68.20
80274;DHT22;69576;51.902;-8.462;2023-06-10T15:32:45;20.10;68.20
80274;DHT22;69576;51.902;-8.462;2023-06-10T15:35:11;20.10;68.30
80274;DHT22;69576;51.902;-8.462;2023-06-10T15:37:37;20.10;68.30
80274;DHT22;69576;51.902;-8.462;2023-06-10T15:40:03;20.10;68.20